チャットラパティー・シヴァージー国際空港の過去48時間の天気

チャットラパティー・シヴァージー国際空港 (Bombay / Santacruz)

現在時刻: 5/26 08:13 IST (5/26 02:43 UTC) 以下の時間は現地時間です。

過去48時間のMETAR気象情報
時間 風向 風速(m/s) 視程 気温(℃) 湿度(%) 気圧(hPa) 天気現象
26 08:00 西 4 3000m 31 70 1009 煙霧
26 07:30 西 3 3000m 30 75 1009 煙霧
26 07:00 北西 2 3000m 30 75 1008 煙霧
26 06:30 西 4 3000m 30 75 1008 煙霧
26 06:00 西 3 3000m 29 79 1008 煙霧
26 05:30 西 3 3000m 30 75 1008 煙霧
26 05:00 西 4 3000m 30 75 1007 煙霧
26 04:30 西 4 3000m 30 75 1007 煙霧
26 04:00 西 4 3500m 30 75 1007 煙霧
26 03:30 西 4 3500m 30 75 1007 煙霧
26 03:00 西 3 3500m 30 75 1007 煙霧
26 02:30 西 4 3500m 30 75 1007 煙霧
26 02:00 西 5 3500m 30 75 1007 煙霧
26 01:30 西 5 3500m 30 75 1008 煙霧
26 01:00 西 4 3500m 30 79 1008 煙霧
26 00:30 西 4 3500m 30 79 1008 煙霧
26 00:00 西南西 5 3500m 30 79 1009 煙霧
25 23:30 西 2 3500m 30 79 1009 煙霧
25 23:00 西 3 3500m 30 79 1009 煙霧
25 22:30 西 4 3500m 30 79 1009 煙霧
25 22:00 西 4 3500m 30 79 1009 煙霧
25 21:30 西 4 3500m 30 79 1008 煙霧
25 21:00 西 3 3500m 30 79 1008 煙霧
25 20:30 西 4 3500m 30 75 1008 煙霧
25 20:00 西 4 4000m 31 75 1007 煙霧
25 19:30 西 5 4000m 31 75 1007 煙霧
25 19:00 西 5 4000m 31 75 1007 煙霧
25 18:30 西 6 5000m 31 70 1007 煙霧
25 18:00 西 6 5000m 31 75 1007 煙霧
25 17:30 西 4 5000m 32 71 1006 煙霧
25 17:00 西 4 5000m 32 71 1006 煙霧
25 16:30 西南西 4 5000m 32 67 1006 煙霧
25 16:00 西 4 5000m 32 71 1006 煙霧
25 15:30 西 4 5000m 32 71 1007 煙霧
25 15:00 西 4 5000m 32 67 1007 煙霧
25 14:30 西 4 5000m 33 67 1007 煙霧
25 14:00 西 7 5000m 33 67 1008 煙霧
25 13:30 西北西 4 5000m 32 63 1008 煙霧
25 13:00 西 4 5000m 32 63 1008 煙霧
25 12:30 西南西 6 5000m 33 59 1009 煙霧
25 12:00 西南西 6 4000m 33 59 1009 煙霧
25 11:30 西南西 5 4000m 33 67 1009 煙霧
25 11:00 西 5 4000m 33 67 1010 煙霧
25 10:30 西南西 6 4000m 32 71 1010 煙霧
25 10:00 西 3 4000m 32 67 1010 煙霧
25 09:30 西北西 3 4000m 31 70 1010 煙霧
25 09:00 西 4 4000m 31 75 1010 煙霧
25 08:30 西 5 3500m 31 75 1010 煙霧
25 08:00 西南西 5 3500m 31 75 1009 煙霧
25 07:30 西 3 3500m 30 79 1009 煙霧
25 07:00 西 3 3500m 30 79 1009 煙霧
25 06:30 西 3 3500m 30 79 1008 煙霧
25 06:00 西 3 3500m 30 79 1008 煙霧
25 05:30 西 4 3500m 30 79 1008 煙霧
25 05:00 西 4 3500m 30 79 1008 煙霧
25 04:30 西 4 3500m 30 79 1007 煙霧
25 04:00 西 4 3500m 30 79 1007 煙霧
25 03:30 西 5 3500m 30 79 1007 煙霧
25 03:00 西南西 5 3500m 30 79 1007 煙霧
25 02:30 西南西 4 3500m 30 79 1007 煙霧
25 02:00 西南西 6 3500m 30 79 1008 煙霧
25 01:30 南南西 4 3500m 30 79 1008 煙霧
25 01:00 西南西 3 3500m 30 79 1008 煙霧
VABB 260230Z 28007KT 3000 HZ FEW020 SCT025 31/25 Q1009 NOSIG
VABB 260200Z 27005KT 3000 HZ SCT020 SCT025 30/25 Q1009 NOSIG
VABB 260130Z 31004KT 3000 HZ SCT020 30/25 Q1008 NOSIG
VABB 260100Z 26007KT 3000 HZ SCT020 30/25 Q1008 NOSIG
VABB 260030Z 27005KT 3000 HZ SCT020 29/25 Q1008 NOSIG
VABB 260000Z 28005KT 3000 HZ SCT020 SCT025 30/25 Q1008 NOSIG
VABB 252330Z 27007KT 3000 HZ SCT020 SCT025 30/25 Q1007 NOSIG
VABB 252300Z 26007KT 3000 HZ SCT020 SCT025 30/25 Q1007 NOSIG
VABB 252230Z 27007KT 3500 HZ SCT020 30/25 Q1007 BECMG 3000 HZ
VABB 252200Z 28008KT 3500 HZ SCT020 30/25 Q1007 NOSIG
VABB 252130Z 27006KT 3500 HZ SCT020 30/25 Q1007 NOSIG
VABB 252100Z 28007KT 3500 HZ SCT020 30/25 Q1007 NOSIG
VABB 252030Z 26009KT 3500 HZ SCT020 30/25 Q1007 NOSIG
VABB 252000Z 27009KT 3500 HZ SCT020 30/25 Q1008 NOSIG
VABB 251930Z 28008KT 3500 HZ SCT020 30/26 Q1008 NOSIG
VABB 251900Z 26008KT 3500 HZ SCT020 30/26 Q1008 NOSIG
VABB 251830Z 24009KT 3500 HZ SCT020 30/26 Q1009 NOSIG
VABB 251800Z 28004KT 3500 HZ SCT020 30/26 Q1009 NOSIG
VABB 251730Z 26005KT 3500 HZ SCT020 30/26 Q1009 NOSIG
VABB 251700Z 27007KT 3500 HZ FEW020 SCT025 30/26 Q1009 NOSIG
VABB 251630Z 28007KT 3500 HZ FEW020 SCT025 30/26 Q1009 NOSIG
VABB 251600Z 28007KT 3500 HZ FEW020 SCT025 30/26 Q1008 NOSIG
VABB 251530Z 26006KT 3500 HZ FEW020 SCT025 30/26 Q1008 NOSIG
VABB 251500Z 27008KT 3500 HZ FEW020 SCT025 30/25 Q1008 NOSIG
VABB 251430Z 26008KT 4000 HZ FEW020 SCT025 31/26 Q1007 NOSIG
VABB 251400Z 26009KT 4000 HZ FEW020 SCT025 31/26 Q1007 NOSIG
VABB 251330Z 27010KT 4000 HZ FEW020 SCT025 31/26 Q1007 NOSIG
VABB 251300Z 27012KT 5000 HZ FEW020 SCT025 31/25 Q1007 NOSIG
VABB 251230Z 26012KT 5000 HZ FEW020 SCT025 31/26 Q1007 NOSIG
VABB 251200Z 26007G17KT 5000 HZ FEW020 SCT025 32/26 Q1006 NOSIG
VABB 251130Z 26008G18KT 5000 HZ FEW020 SCT025 32/26 Q1006 NOSIG
VABB 251100Z 25007G17KT 5000 HZ FEW020 SCT025 32/25 Q1006 NOSIG
VABB 251030Z 26008G18KT 5000 HZ FEW020 SCT025 32/26 Q1006 NOSIG
VABB 251000Z 26007G17KT 5000 HZ FEW020 SCT025 32/26 Q1007 NOSIG
VABB 250930Z 26008G18KT 5000 HZ FEW020 SCT025 32/25 Q1007 NOSIG
VABB 250900Z 26008G18KT 5000 HZ FEW020 SCT025 33/26 Q1007 NOSIG
VABB 250830Z 26013KT 5000 HZ FEW020 SCT025 33/26 Q1008 NOSIG
VABB 250800Z 29007G17KT 5000 HZ FEW020 SCT025 32/24 Q1008 NOSIG
VABB 250730Z 27007G17KT 5000 HZ FEW020 SCT025 32/24 Q1008 NOSIG
VABB 250700Z 24012KT 5000 HZ FEW020 SCT025 33/24 Q1009 NOSIG
VABB 250630Z 25011KT 4000 HZ FEW020 SCT025 33/24 Q1009 BECMG 5000 FU
VABB 250600Z 25010KT 4000 HZ FEW020 SCT025 33/26 Q1009 NOSIG
VABB 250530Z 27010KT 4000 HZ FEW020 SCT025 33/26 Q1010 NOSIG
VABB 250500Z 25011KT 4000 HZ FEW020 SCT025 32/26 Q1010 NOSIG
VABB 250430Z 28006KT 4000 HZ FEW020 SCT025 32/25 Q1010 NOSIG
VABB 250400Z 29005KT 4000 HZ SCT020 SCT025 31/25 Q1010 NOSIG
VABB 250330Z 27007KT 4000 HZ SCT020 SCT025 31/26 Q1010 NOSIG
VABB 250300Z 26009KT 3500 HZ SCT020 SCT025 31/26 Q1010 NOSIG
VABB 250230Z 25009KT 3500 HZ SCT020 SCT025 31/26 Q1009 NOSIG
VABB 250200Z 28006KT 3500 HZ FEW020 30/26 Q1009 NOSIG
VABB 250130Z 27006KT 3500 HZ FEW020 30/26 Q1009 NOSIG
VABB 250100Z 27006KT 3500 HZ FEW020 30/26 Q1008 NOSIG
VABB 250030Z 26006KT 3500 HZ FEW020 30/26 Q1008 NOSIG
VABB 250000Z 27007KT 3500 HZ FEW020 30/26 Q1008 NOSIG
VABB 242330Z 28008KT 3500 HZ SCT020 30/26 Q1008 NOSIG
VABB 242300Z 26008KT 3500 HZ SCT020 30/26 Q1007 NOSIG
VABB 242230Z 26008KT 3500 HZ SCT020 30/26 Q1007 NOSIG
VABB 242200Z 26009KT 3500 HZ FEW020 30/26 Q1007 NOSIG
VABB 242130Z 25009KT 3500 HZ FEW020 SCT025 30/26 Q1007 NOSIG
VABB 242100Z 25008KT 3500 HZ FEW020 SCT025 30/26 Q1007 NOSIG
VABB 242030Z 25012KT 3500 HZ FEW020 SCT025 30/26 Q1008 NOSIG
VABB 242000Z 21007KT 3500 HZ SCT020 SCT025 30/26 Q1008 NOSIG
VABB 241930Z 24006KT 3500 HZ SCT020 SCT025 30/26 Q1008 NOSIG